Time,TemperatureF,DewpointF,PressureIn,WindDirection,WindDirectionDegrees,WindSpeedMPH,WindSpeedGustMPH,Humidity,HourlyPrecipIn,Conditions,Clouds,dailyrainin,SoftwareType,DateUTC
2013-06-02 00:08:00,69.4,68.8,29.73,NW,315,0.0,-999.0,98,-99.99,,,0.00,Acu-Link.com,2013-06-02 04:08:00,
2013-06-02 00:24:00,69.4,68.8,29.74,NNE,22,0.0,-999.0,98,-99.99,,,0.00,Acu-Link.com,2013-06-02 04:24:00,
2013-06-02 00:39:00,69.3,68.7,29.72,ESE,112,0.0,-999.0,98,-99.99,,,0.00,Acu-Link.com,2013-06-02 04:39:00,
2013-06-02 00:54:00,68.9,68.3,29.72,West,270,0.0,-999.0,98,-99.99,,,0.00,Acu-Link.com,2013-06-02 04:54:00,
2013-06-02 01:09:00,68.7,68.1,29.74,NNW,337,0.0,-999.0,98,-99.99,,,0.00,Acu-Link.com,2013-06-02 05:09:00,
2013-06-02 01:25:00,68.5,67.9,29.73,SW,225,0.0,-999.0,98,-99.99,,,0.00,Acu-Link.com,2013-06-02 05:25:00,
2013-06-02 01:40:00,68.4,67.8,29.73,South,180,0.0,-999.0,98,-99.99,,,0.00,Acu-Link.com,2013-06-02 05:40:00,
2013-06-02 01:55:00,68.2,67.6,29.74,SSW,202,0.0,-999.0,98,-99.99,,,0.00,Acu-Link.com,2013-06-02 05:55:00,
2013-06-02 02:11:00,68.0,67.4,29.74,SSW,202,0.0,-999.0,98,-99.99,,,0.00,Acu-Link.com,2013-06-02 06:11:00,
2013-06-02 02:26:00,68.2,67.6,29.74,SSW,202,0.0,-999.0,98,-99.99,,,0.00,Acu-Link.com,2013-06-02 06:26:00,
2013-06-02 02:41:00,68.4,67.8,29.74,SE,135,0.0,-999.0,98,-99.99,,,0.00,Acu-Link.com,2013-06-02 06:41:00,
2013-06-02 02:56:00,68.5,67.9,29.73,SE,135,0.0,-999.0,98,-99.99,,,0.00,Acu-Link.com,2013-06-02 06:56:00,
2013-06-02 03:11:00,68.4,67.8,29.72,SE,135,0.0,-999.0,98,-99.99,,,0.00,Acu-Link.com,2013-06-02 07:11:00,
2013-06-02 03:26:00,68.4,67.8,29.72,SE,135,0.0,-999.0,98,-99.99,,,0.00,Acu-Link.com,2013-06-02 07:26:00,
2013-06-02 03:42:00,68.7,68.1,29.71,SE,135,0.0,-999.0,98,-99.99,,,0.00,Acu-Link.com,2013-06-02 07:42:00,
2013-06-02 03:57:00,68.7,68.1,29.70,SE,135,1.7,-999.0,98,-99.99,,,0.01,Acu-Link.com,2013-06-02 07:57:00,
2013-06-02 04:14:00,68.7,68.1,29.70,WNW,292,1.7,-999.0,98,-99.99,,,0.01,Acu-Link.com,2013-06-02 08:14:00,
2013-06-02 04:29:00,68.9,68.3,29.71,ESE,112,1.1,-999.0,98,-99.99,,,0.01,Acu-Link.com,2013-06-02 08:29:00,
2013-06-02 04:44:00,69.1,68.5,29.71,WSW,247,0.0,-999.0,98,-99.99,,,0.04,Acu-Link.com,2013-06-02 08:44:00,
2013-06-02 04:59:00,69.1,68.5,29.71,SSW,202,0.0,-999.0,98,-99.99,,,0.05,Acu-Link.com,2013-06-02 08:59:00,
2013-06-02 05:14:00,69.1,68.5,29.71,South,180,0.0,-999.0,98,-99.99,,,0.05,Acu-Link.com,2013-06-02 09:14:00,
2013-06-02 05:29:00,69.1,68.5,29.70,SSE,157,0.0,-999.0,98,-99.99,,,0.05,Acu-Link.com,2013-06-02 09:29:00,
2013-06-02 05:44:00,69.1,68.5,29.70,East,90,0.0,-999.0,98,-99.99,,,0.05,Acu-Link.com,2013-06-02 09:44:00,
2013-06-02 06:00:00,69.3,68.7,29.70,South,180,0.0,-999.0,98,-99.99,,,0.07,Acu-Link.com,2013-06-02 10:00:00,
2013-06-02 06:15:00,69.4,68.8,29.71,South,180,1.7,-999.0,98,-99.99,,,0.08,Acu-Link.com,2013-06-02 10:15:00,
2013-06-02 06:30:00,69.6,69.0,29.71,SW,225,4.2,-999.0,98,-99.99,,,0.08,Acu-Link.com,2013-06-02 10:30:00,
2013-06-02 06:45:00,69.8,69.2,29.72,SSE,157,3.2,-999.0,98,-99.99,,,0.20,Acu-Link.com,2013-06-02 10:45:00,
2013-06-02 07:00:00,69.8,69.2,29.73,SSW,202,2.7,-999.0,98,-99.99,,,0.55,Acu-Link.com,2013-06-02 11:00:00,
2013-06-02 07:16:00,69.8,69.2,29.71,SSE,157,2.7,-999.0,98,-99.99,,,0.57,Acu-Link.com,2013-06-02 11:16:00,
2013-06-02 07:31:00,69.6,69.0,29.72,SW,225,4.7,-999.0,98,-99.99,,,0.57,Acu-Link.com,2013-06-02 11:31:00,
2013-06-02 07:47:00,69.6,69.0,29.72,SSE,157,2.7,-999.0,98,-99.99,,,0.60,Acu-Link.com,2013-06-02 11:47:00,
2013-06-02 08:02:00,69.6,69.0,29.71,South,180,2.7,-999.0,98,-99.99,,,0.61,Acu-Link.com,2013-06-02 12:02:00,
2013-06-02 08:17:00,69.6,69.0,29.71,South,180,2.2,-999.0,98,-99.99,,,0.63,Acu-Link.com,2013-06-02 12:17:00,
2013-06-02 08:33:00,69.6,69.0,29.73,SE,135,4.2,-999.0,98,-99.99,,,0.66,Acu-Link.com,2013-06-02 12:33:00,
2013-06-02 08:48:00,69.3,68.7,29.71,SSE,157,6.3,-999.0,98,-99.99,,,0.76,Acu-Link.com,2013-06-02 12:48:00,
2013-06-02 09:03:00,68.7,68.1,29.71,South,180,3.7,-999.0,98,-99.99,,,0.90,Acu-Link.com,2013-06-02 13:03:00,
2013-06-02 09:19:00,68.5,67.9,29.72,NNW,337,2.2,-999.0,98,-99.99,,,0.95,Acu-Link.com,2013-06-02 13:19:00,
2013-06-02 09:34:00,68.5,67.9,29.72,South,180,1.7,-999.0,98,-99.99,,,1.03,Acu-Link.com,2013-06-02 13:34:00,
2013-06-02 09:49:00,68.4,67.8,29.70,SSW,202,2.2,-999.0,98,-99.99,,,1.07,Acu-Link.com,2013-06-02 13:49:00,
2013-06-02 10:04:00,68.5,67.9,29.72,South,180,3.7,-999.0,98,-99.99,,,1.09,Acu-Link.com,2013-06-02 14:04:00,
2013-06-02 10:20:00,68.5,67.9,29.74,SSW,202,1.1,-999.0,98,-99.99,,,1.12,Acu-Link.com,2013-06-02 14:20:00,
2013-06-02 10:35:00,68.5,67.9,29.73,North,0,2.2,-999.0,98,-99.99,,,1.53,Acu-Link.com,2013-06-02 14:35:00,
2013-06-02 10:50:00,67.1,66.5,29.73,SE,135,3.7,-999.0,98,-99.99,,,1.99,Acu-Link.com,2013-06-02 14:50:00,
2013-06-02 11:05:00,67.1,66.5,29.75,SSE,157,2.7,-999.0,98,-99.99,,,2.02,Acu-Link.com,2013-06-02 15:05:00,
2013-06-02 11:21:00,66.9,66.3,29.73,SE,135,1.7,-999.0,98,-99.99,,,2.04,Acu-Link.com,2013-06-02 15:21:00,
2013-06-02 11:36:00,66.9,66.3,29.74,SSE,157,1.1,-999.0,98,-99.99,,,2.06,Acu-Link.com,2013-06-02 15:36:00,
2013-06-02 11:51:00,66.9,66.3,29.73,SE,135,0.0,-999.0,98,-99.99,,,2.07,Acu-Link.com,2013-06-02 15:51:00,
2013-06-02 12:07:00,67.3,66.7,29.73,SSE,157,1.7,-999.0,98,-99.99,,,2.08,Acu-Link.com,2013-06-02 16:07:00,
2013-06-02 12:22:00,67.1,66.5,29.74,South,180,0.0,-999.0,98,-99.99,,,2.12,Acu-Link.com,2013-06-02 16:22:00,
2013-06-02 12:38:00,68.0,67.4,29.72,ESE,112,0.0,-999.0,98,-99.99,,,2.16,Acu-Link.com,2013-06-02 16:38:00,
2013-06-02 12:53:00,68.9,68.3,29.72,SSE,157,0.0,-999.0,98,-99.99,,,2.16,Acu-Link.com,2013-06-02 16:53:00,
2013-06-02 13:08:00,69.8,69.2,29.73,SSE,157,0.0,-999.0,98,-99.99,,,2.17,Acu-Link.com,2013-06-02 17:08:00,
2013-06-02 13:23:00,70.3,69.7,29.73,NE,45,2.2,-999.0,98,-99.99,,,2.17,Acu-Link.com,2013-06-02 17:23:00,
2013-06-02 13:39:00,72.0,71.4,29.71,East,90,1.1,-999.0,98,-99.99,,,2.17,Acu-Link.com,2013-06-02 17:39:00,
2013-06-02 13:54:00,74.1,73.5,29.69,North,0,2.2,-999.0,98,-99.99,,,2.17,Acu-Link.com,2013-06-02 17:54:00,
2013-06-02 14:09:00,75.6,75.0,29.70,SSE,157,2.2,-999.0,98,-99.99,,,2.17,Acu-Link.com,2013-06-02 18:09:00,
2013-06-02 14:25:00,77.4,76.8,29.68,South,180,1.1,-999.0,98,-99.99,,,2.17,Acu-Link.com,2013-06-02 18:25:00,
2013-06-02 14:40:00,77.4,76.8,29.69,SSE,157,1.1,-999.0,98,-99.99,,,2.17,Acu-Link.com,2013-06-02 18:40:00,
2013-06-02 14:55:00,78.4,77.8,29.69,NE,45,0.0,-999.0,98,-99.99,,,2.17,Acu-Link.com,2013-06-02 18:55:00,
2013-06-02 15:10:00,79.5,78.9,29.68,NNW,337,2.2,-999.0,98,-99.99,,,2.17,Acu-Link.com,2013-06-02 19:10:00,
2013-06-02 15:26:00,79.5,78.9,29.68,East,90,2.7,-999.0,98,-99.99,,,2.17,Acu-Link.com,2013-06-02 19:26:00,
2013-06-02 15:41:00,81.1,80.5,29.67,WNW,292,2.2,-999.0,98,-99.99,,,2.17,Acu-Link.com,2013-06-02 19:41:00,
2013-06-02 15:56:00,81.1,80.2,29.67,South,180,2.2,-999.0,97,-99.99,,,2.17,Acu-Link.com,2013-06-02 19:56:00,
2013-06-02 16:12:00,80.8,80.2,29.64,South,180,2.2,-999.0,98,-99.99,,,2.17,Acu-Link.com,2013-06-02 20:12:00,
2013-06-02 16:27:00,80.1,79.5,29.63,SSW,202,0.0,-999.0,98,-99.99,,,2.17,Acu-Link.com,2013-06-02 20:27:00,
2013-06-02 16:42:00,80.4,79.8,29.63,NNW,337,2.7,-999.0,98,-99.99,,,2.17,Acu-Link.com,2013-06-02 20:42:00,
2013-06-02 16:58:00,81.7,80.4,29.64,NNE,22,2.2,-999.0,96,-99.99,,,2.17,Acu-Link.com,2013-06-02 20:58:00,
2013-06-02 17:13:00,79.7,79.1,29.64,SW,225,2.2,-999.0,98,-99.99,,,2.17,Acu-Link.com,2013-06-02 21:13:00,
2013-06-02 17:28:00,78.1,76.9,29.67,NE,45,7.3,-999.0,96,-99.99,,,2.17,Acu-Link.com,2013-06-02 21:28:00,
2013-06-02 17:44:00,74.1,73.5,29.66,NNW,337,6.8,-999.0,98,-99.99,,,2.17,Acu-Link.com,2013-06-02 21:44:00,
2013-06-02 17:59:00,70.7,70.1,29.65,SW,225,1.7,-999.0,98,-99.99,,,2.21,Acu-Link.com,2013-06-02 21:59:00,
2013-06-02 18:14:00,68.2,67.6,29.65,South,180,2.7,-999.0,98,-99.99,,,2.49,Acu-Link.com,2013-06-02 22:14:00,
2013-06-02 18:29:00,68.0,67.4,29.64,South,180,0.0,-999.0,98,-99.99,,,2.63,Acu-Link.com,2013-06-02 22:29:00,
2013-06-02 18:45:00,68.7,68.1,29.65,NNE,22,1.1,-999.0,98,-99.99,,,2.65,Acu-Link.com,2013-06-02 22:45:00,
2013-06-02 19:00:00,69.3,68.7,29.64,East,90,0.0,-999.0,98,-99.99,,,2.66,Acu-Link.com,2013-06-02 23:00:00,
2013-06-02 19:15:00,69.3,68.7,29.65,South,180,0.0,-999.0,98,-99.99,,,2.66,Acu-Link.com,2013-06-02 23:15:00,
2013-06-02 19:30:00,69.3,68.7,29.65,SSE,157,0.0,-999.0,98,-99.99,,,2.67,Acu-Link.com,2013-06-02 23:30:00,
2013-06-02 19:45:00,69.6,69.0,29.66,NNW,337,0.0,-999.0,98,-99.99,,,2.67,Acu-Link.com,2013-06-02 23:45:00,
2013-06-02 20:01:00,69.6,69.0,29.65,NNE,22,1.7,-999.0,98,-99.99,,,2.67,Acu-Link.com,2013-06-03 00:01:00,
2013-06-02 20:16:00,69.8,69.2,29.66,East,90,0.0,-999.0,98,-99.99,,,2.67,Acu-Link.com,2013-06-03 00:16:00,
2013-06-02 20:31:00,69.6,69.0,29.65,West,270,0.0,-999.0,98,-99.99,,,2.67,Acu-Link.com,2013-06-03 00:31:00,
2013-06-02 20:47:00,69.4,68.8,29.65,ESE,112,0.0,-999.0,98,-99.99,,,2.67,Acu-Link.com,2013-06-03 00:47:00,
2013-06-02 21:02:00,69.4,68.8,29.66,NNW,337,1.1,-999.0,98,-99.99,,,2.67,Acu-Link.com,2013-06-03 01:02:00,
2013-06-02 21:17:00,69.1,68.5,29.66,NNE,22,0.0,-999.0,98,-99.99,,,2.67,Acu-Link.com,2013-06-03 01:17:00,
2013-06-02 21:32:00,69.3,68.7,29.67,North,0,2.7,-999.0,98,-99.99,,,2.67,Acu-Link.com,2013-06-03 01:32:00,
2013-06-02 21:48:00,69.3,68.7,29.68,North,0,1.1,-999.0,98,-99.99,,,2.67,Acu-Link.com,2013-06-03 01:48:00,
2013-06-02 22:03:00,69.1,68.5,29.68,North,0,4.7,-999.0,98,-99.99,,,2.73,Acu-Link.com,2013-06-03 02:03:00,
2013-06-02 22:18:00,68.5,67.9,29.69,SE,135,2.7,-999.0,98,-99.99,,,2.92,Acu-Link.com,2013-06-03 02:18:00,
2013-06-02 22:33:00,68.5,67.9,29.69,South,180,0.0,-999.0,98,-99.99,,,3.23,Acu-Link.com,2013-06-03 02:33:00,
2013-06-02 22:49:00,68.4,67.8,29.71,ESE,112,0.0,-999.0,98,-99.99,,,3.41,Acu-Link.com,2013-06-03 02:49:00,
2013-06-02 23:04:00,68.2,67.6,29.72,SSE,157,0.0,-999.0,98,-99.99,,,3.41,Acu-Link.com,2013-06-03 03:04:00,
2013-06-02 23:20:00,68.0,67.4,29.71,SSE,157,0.0,-999.0,98,-99.99,,,3.41,Acu-Link.com,2013-06-03 03:20:00,
2013-06-02 23:35:00,67.5,66.9,29.71,NE,45,0.0,-999.0,98,-99.99,,,3.41,Acu-Link.com,2013-06-03 03:35:00,
2013-06-02 23:50:00,67.1,66.5,29.70,NE,45,0.0,-999.0,98,-99.99,,,3.41,Acu-Link.com,2013-06-03 03:50:00,